.
WxDataArchive / Data Records for 2008-09-12
2008-09-11 September 2008 2008-09-13

Data Records for Friday, 12 September 2008

Time	Temp	Chill	HIndex	Humid	Dewpt	 Wind 	HiWind	WindDir	Rain 	Barom 
-----	----	-----	------	-----	-----	------	------	-------	-----	----- 
00:00	67.8	67.8	67.8	88	64.1	0	1	45	0.00	29.982 
00:05	68.1	68.1	68.1	88	64.4	0	1	45	0.00	29.982 
00:10	68.4	68.4	68.4	88	64.7	0	0	---	0.00	29.982 
00:15	68.4	68.4	68.4	87	64.4	0	0	---	0.00	29.979 
00:20	68.6	68.6	68.6	87	64.6	0	0	---	0.00	29.979 
00:25	68.8	68.8	68.8	87	64.8	0	0	---	0.00	29.979 
00:30	68.8	68.8	68.8	87	64.8	0	0	---	0.00	29.975 
00:35	68.9	68.9	68.9	87	64.9	0	0	---	0.00	29.975 
00:40	68.9	68.9	68.9	87	64.9	0	0	---	0.00	29.975 
00:45	69.1	69.1	69.1	87	65.1	0	1	45	0.00	29.971 
00:50	69.3	69.3	69.3	87	65.3	0	1	45	0.00	29.971 
00:55	69.4	69.4	69.4	87	65.4	0	2	225	0.00	29.971 
01:00	69.6	69.6	69.6	87	65.6	0	2	225	0.00	29.963 
01:05	69.9	69.9	69.9	87	65.8	0	1	225	0.00	29.963 
01:10	69.9	69.9	69.9	87	65.8	0	2	225	0.00	29.963 
01:15	70.1	70.1	70.1	87	66.0	0	2	225	0.00	29.960 
01:20	70.1	70.1	70.1	88	66.4	1	5	248	0.00	29.960 
01:25	70.1	70.1	70.1	88	66.4	0	1	248	0.01	29.960 
01:30	69.9	69.9	69.9	89	66.5	0	4	225	0.01	29.950 
01:35	69.9	69.9	69.9	91	67.1	0	3	225	0.00	29.950 
01:40	69.9	69.9	69.9	91	67.1	0	2	225	0.00	29.950 
01:45	69.8	69.8	69.8	92	67.4	0	3	225	0.00	29.945 
01:50	69.8	69.8	69.8	92	67.4	0	1	225	0.00	29.945 
01:55	69.8	69.8	69.8	92	67.4	0	1	225	0.00	29.945 
02:00	69.8	69.8	69.8	93	67.7	0	3	225	0.09	29.956 
02:05	69.6	69.6	69.6	93	67.5	0	2	225	0.12	29.956 
02:10	69.8	69.8	69.8	94	68.0	1	4	225	0.04	29.956 
02:15	70.1	70.1	70.1	94	68.3	2	7	248	0.04	29.940 
02:20	70.1	70.1	70.1	94	68.3	1	4	248	0.01	29.940 
02:25	69.9	69.9	69.9	94	68.1	1	6	248	0.00	29.940 
02:30	69.9	69.9	69.9	94	68.1	1	3	248	0.00	29.940 
02:35	69.8	69.8	69.8	95	68.3	0	2	248	0.01	29.940 
02:40	69.8	69.8	69.8	95	68.3	0	1	248	0.00	29.940 
02:45	69.8	69.8	69.8	95	68.3	0	2	248	0.00	29.939 
02:50	69.6	69.6	69.6	95	68.1	0	1	248	0.00	29.939 
02:55	69.6	69.6	69.6	95	68.1	0	1	248	0.00	29.939 
03:00	69.6	69.6	69.6	95	68.1	0	1	248	0.00	29.937 
03:05	69.6	69.6	69.6	95	68.1	0	1	248	0.00	29.937 
03:10	69.6	69.6	69.6	95	68.1	0	2	248	0.00	29.937 
03:15	69.6	69.6	69.6	95	68.1	0	2	248	0.00	29.932 
03:20	69.4	69.4	69.4	95	67.9	0	1	248	0.00	29.932 
03:25	69.4	69.4	69.4	95	67.9	0	1	248	0.00	29.932 
03:30	69.4	69.4	69.4	95	67.9	0	1	248	0.00	29.930 
03:35	69.4	69.4	69.4	95	67.9	0	0	---	0.00	29.930 
03:40	69.3	69.3	69.3	96	68.1	0	1	248	0.00	29.930 
03:45	69.4	69.4	69.4	96	68.2	0	1	248	0.00	29.928 
03:50	69.4	69.4	69.4	96	68.2	0	1	248	0.02	29.928 
03:55	69.4	69.4	69.4	96	68.2	0	1	248	0.00	29.928 
04:00	69.6	69.6	69.6	96	68.4	0	1	248	0.00	29.928 
04:05	69.6	69.6	69.6	96	68.4	0	2	248	0.00	29.928 
04:10	69.8	69.8	69.8	96	68.6	0	2	248	0.00	29.928 
04:15	69.8	69.8	69.8	96	68.6	0	2	248	0.00	29.930 
04:20	69.8	69.8	69.8	96	68.6	0	1	248	0.00	29.930 
04:25	69.8	69.8	69.8	96	68.6	0	1	248	0.00	29.930 
04:30	69.9	69.9	69.9	96	68.7	0	1	248	0.00	29.927 
04:35	69.9	69.9	69.9	96	68.7	0	1	248	0.00	29.927 
04:40	69.9	69.9	69.9	96	68.7	0	1	248	0.00	29.927 
04:45	69.9	69.9	69.9	96	68.7	0	2	248	0.01	29.930 
04:50	70.1	70.1	70.1	96	68.9	0	2	248	0.00	29.930 
04:55	70.1	70.1	70.1	96	68.9	0	2	248	0.00	29.930 
05:00	70.1	70.1	70.1	96	68.9	1	3	270	0.08	29.930 
05:05	70.1	70.1	70.1	96	68.9	1	3	248	0.00	29.930 
05:10	70.1	70.1	70.1	96	68.9	0	2	248	0.01	29.930 
05:15	70.1	70.1	70.1	96	68.9	1	3	248	0.00	29.929 
05:20	70.1	70.1	70.1	96	68.9	0	2	248	0.00	29.929 
05:25	69.9	69.9	69.9	96	68.7	0	2	248	0.00	29.929 
05:30	69.9	69.9	69.9	96	68.7	0	2	248	0.00	29.929 
05:35	69.8	69.8	69.8	96	68.6	0	2	248	0.00	29.929 
05:40	69.8	69.8	69.8	96	68.6	1	2	248	0.00	29.929 
05:45	69.6	69.6	69.6	96	68.4	0	3	225	0.00	29.929 
05:50	69.6	69.6	69.6	96	68.4	0	2	292	0.00	29.929 
05:55	69.4	69.4	69.4	96	68.2	0	1	292	0.00	29.929 
06:00	69.3	69.3	69.3	96	68.1	0	2	292	0.00	29.934 
06:05	69.3	69.3	69.3	96	68.1	0	1	292	0.00	29.934 
06:10	69.1	69.1	69.1	96	67.9	0	1	292	0.01	29.934 
06:15	69.1	69.1	69.1	96	67.9	0	1	292	0.00	29.942 
06:20	69.1	69.1	69.1	96	67.9	0	2	292	0.00	29.942 
06:25	69.1	69.1	69.1	96	67.9	0	1	292	0.00	29.942 
06:30	69.1	69.1	69.1	96	67.9	0	1	292	0.00	29.940 
06:35	69.1	69.1	69.1	96	67.9	0	1	292	0.00	29.940 
06:40	69.1	69.1	69.1	96	67.9	0	2	292	0.00	29.940 
06:45	68.9	68.9	68.9	96	67.7	0	2	292	0.00	29.946 
06:50	68.9	68.9	68.9	96	67.7	0	2	292	0.01	29.946 
06:55	68.9	68.9	68.9	96	67.7	0	2	292	0.00	29.946 
07:00	68.9	68.9	68.9	96	67.7	1	3	292	0.00	29.947 
07:05	68.9	68.9	68.9	96	67.7	0	2	292	0.00	29.947 
07:10	68.9	68.9	68.9	96	67.7	1	2	292	0.00	29.947 
07:15	68.9	68.9	68.9	96	67.7	0	2	292	0.00	29.952 
07:20	69.1	69.1	69.1	96	67.9	0	2	292	0.00	29.952 
07:25	69.1	69.1	69.1	96	67.9	0	1	292	0.01	29.952 
07:30	69.1	69.1	69.1	96	67.9	0	2	292	0.00	29.953 
07:35	69.1	69.1	69.1	96	67.9	0	1	292	0.00	29.953 
07:40	69.1	69.1	69.1	96	67.9	0	2	292	0.00	29.953 
07:45	69.3	69.3	69.3	96	68.1	0	1	292	0.00	29.953 
07:50	69.3	69.3	69.3	96	68.1	0	1	292	0.00	29.953 
07:55	69.3	69.3	69.3	96	68.1	0	2	292	0.00	29.953 
08:00	69.3	69.3	69.3	96	68.1	0	2	292	0.00	29.954 
08:05	69.4	69.4	69.4	96	68.2	0	2	248	0.00	29.954 
08:10	69.4	69.4	69.4	96	68.2	0	2	248	0.00	29.954 
08:15	69.6	69.6	69.6	96	68.4	0	2	248	0.00	29.950 
08:20	69.6	69.6	69.6	96	68.4	0	3	248	0.00	29.950 
08:25	69.8	69.8	69.8	96	68.6	0	2	248	0.00	29.950 
08:30	69.8	69.8	69.8	96	68.6	0	3	248	0.00	29.943 
08:35	69.9	69.9	69.9	96	68.7	0	3	248	0.00	29.943 
08:40	69.9	69.9	69.9	96	68.7	0	2	248	0.00	29.943 
08:45	69.9	69.9	69.9	96	68.7	0	2	248	0.00	29.939 
08:50	70.1	70.1	70.1	96	68.9	0	1	248	0.00	29.939 
08:55	70.3	70.3	70.3	96	69.1	1	2	248	0.00	29.939 
09:00	70.3	70.3	70.3	96	69.1	1	3	248	0.00	29.939 
09:05	70.3	70.3	70.3	96	69.1	0	3	248	0.00	29.939 
09:10	70.3	70.3	70.3	96	69.1	1	3	248	0.00	29.939 
09:15	70.3	70.3	70.3	96	69.1	1	3	248	0.00	29.939 
09:20	70.3	70.3	70.3	96	69.1	1	2	248	0.00	29.939 
09:25	70.3	70.3	70.3	96	69.1	1	4	248	0.00	29.939 
09:30	70.4	70.4	70.4	96	69.2	1	2	270	0.00	29.945 
09:35	70.4	70.4	70.4	96	69.2	0	2	270	0.00	29.945 
09:40	70.4	70.4	70.4	95	68.9	0	3	270	0.00	29.945 
09:45	70.3	70.3	70.3	95	68.8	1	2	270	0.00	29.951 
09:50	70.3	70.3	70.3	95	68.8	1	3	248	0.00	29.951 
09:55	70.4	70.4	70.4	95	68.9	0	1	248	0.00	29.951 
10:00	70.4	70.4	70.4	95	68.9	1	3	248	0.00	29.957 
10:05	70.4	70.4	70.4	95	68.9	1	2	248	0.00	29.957 
10:10	70.3	70.3	70.3	95	68.8	1	3	248	0.00	29.957 
10:15	70.3	70.3	70.3	95	68.8	1	2	248	0.00	29.967 
10:20	70.3	70.3	70.3	95	68.8	1	2	248	0.00	29.967 
10:25	70.3	70.3	70.3	95	68.8	1	2	248	0.00	29.967 
10:30	70.3	70.3	70.3	94	68.5	0	1	248	0.00	29.960 
10:35	70.3	70.3	70.3	94	68.5	0	2	248	0.01	29.960 
10:40	70.4	70.4	70.4	95	68.9	0	2	248	0.00	29.960 
10:45	70.4	70.4	70.4	95	68.9	0	1	248	0.00	29.961 
10:50	70.6	70.6	70.6	95	69.1	0	1	248	0.01	29.961 
10:55	70.8	70.8	70.8	95	69.3	0	2	248	0.00	29.961 
11:00	70.9	70.9	70.9	95	69.4	1	3	248	0.00	29.965 
11:05	70.8	70.8	70.8	95	69.3	1	4	270	0.00	29.965 
11:10	70.9	70.9	70.9	95	69.4	0	2	270	0.00	29.965 
11:15	71.1	71.1	71.1	94	69.3	0	2	248	0.00	29.969 
11:20	70.9	70.9	70.9	94	69.1	1	2	248	0.00	29.969 
11:25	70.9	70.9	70.9	94	69.1	1	3	248	0.00	29.969 
11:30	70.9	70.9	70.9	94	69.1	1	2	248	0.00	29.969 
11:35	71.1	71.1	71.1	94	69.3	1	2	270	0.00	29.969 
11:40	71.3	71.3	71.3	94	69.5	0	3	270	0.00	29.969 
11:45	71.1	71.1	71.1	94	69.3	1	3	270	0.00	29.969 
11:50	71.1	71.1	71.1	94	69.3	1	3	270	0.00	29.969 
11:55	71.1	71.1	71.1	93	69.0	1	3	270	0.00	29.969 
12:00	71.3	71.3	71.3	94	69.5	1	3	248	0.00	29.964 
12:05	71.5	71.5	71.5	93	69.4	1	2	248	0.00	29.964 
12:10	71.5	71.5	71.5	93	69.4	0	3	248	0.00	29.964 
12:15	71.6	71.6	71.6	93	69.5	0	3	248	0.00	29.950 
12:20	71.8	71.8	71.8	93	69.7	1	3	270	0.00	29.950 
12:25	71.6	71.6	71.6	93	69.5	1	2	270	0.00	29.950 
12:30	71.6	71.6	71.6	92	69.1	1	3	270	0.00	29.949 
12:35	71.8	71.8	71.8	92	69.3	1	3	270	0.00	29.949 
12:40	71.8	71.8	71.8	92	69.3	0	2	270	0.00	29.949 
12:45	71.8	71.8	71.8	92	69.3	1	2	270	0.00	29.949 
12:50	71.8	71.8	71.8	92	69.3	1	2	270	0.01	29.949 
12:55	71.8	71.8	71.8	92	69.3	1	2	270	0.00	29.949 
13:00	71.6	71.6	71.6	91	68.8	1	2	270	0.00	29.950 
13:05	71.8	71.8	71.8	92	69.3	0	1	270	0.00	29.950 
13:10	71.6	71.6	71.6	92	69.1	0	1	270	0.00	29.950 
13:15	71.6	71.6	71.6	92	69.1	0	2	270	0.00	29.948 
13:20	71.5	71.5	71.5	92	69.0	0	2	270	0.01	29.948 
13:25	71.5	71.5	71.5	92	69.0	1	3	270	0.00	29.948 
13:30	71.5	71.5	71.5	92	69.0	1	2	248	0.00	29.947 
13:35	71.5	71.5	71.5	92	69.0	0	2	248	0.00	29.947 
13:40	71.5	71.5	71.5	92	69.0	0	1	248	0.01	29.947 
13:45	71.6	71.6	71.6	92	69.1	1	4	248	0.00	29.938 
13:50	71.6	71.6	71.6	93	69.5	0	2	248	0.00	29.938 
13:55	71.8	71.8	71.8	93	69.7	1	2	248	0.00	29.938 
14:00	72.0	72.0	72.0	93	69.9	0	1	248	0.00	29.933 
14:05	72.3	72.3	72.3	93	70.2	0	1	248	0.00	29.933 
14:10	72.5	72.5	72.5	93	70.4	0	3	248	0.00	29.933 
14:15	72.5	72.5	72.5	93	70.4	0	3	292	0.00	29.919 
14:20	72.7	72.7	72.7	93	70.6	0	2	292	0.00	29.919 
14:25	72.8	72.8	72.8	92	70.3	0	2	292	0.00	29.919 
14:30	73.0	73.0	73.0	92	70.5	0	2	292	0.00	29.919 
14:35	73.0	73.0	73.0	92	70.5	0	2	292	0.00	29.919 
14:40	73.0	73.0	73.0	91	70.2	1	3	292	0.00	29.919 
14:45	73.0	73.0	73.0	91	70.2	0	2	248	0.00	29.921 
14:50	72.8	72.8	72.8	91	70.0	0	2	248	0.00	29.921 
14:55	72.7	72.7	72.7	91	69.9	0	1	248	0.01	29.921 
15:00	72.5	72.5	72.5	91	69.7	0	1	248	0.00	29.919 
15:05	72.3	72.3	72.3	91	69.5	0	1	248	0.00	29.919 
15:10	72.3	72.3	72.3	92	69.8	0	1	248	0.00	29.919 
15:15	72.1	72.1	72.1	92	69.6	0	1	248	0.01	29.918 
15:20	72.3	72.3	72.3	92	69.8	0	1	248	0.00	29.918 
15:25	72.1	72.1	72.1	92	69.6	0	2	248	0.00	29.918 
15:30	72.1	72.1	72.1	92	69.6	0	1	248	0.00	29.917 
15:35	72.1	72.1	72.1	93	70.0	0	1	248	0.01	29.917 
15:40	72.0	72.0	72.0	93	69.9	0	1	248	0.00	29.917 
15:45	72.0	72.0	72.0	93	69.9	0	1	248	0.00	29.914 
15:50	72.0	72.0	72.0	93	69.9	0	1	248	0.00	29.914 
15:55	72.0	72.0	72.0	93	69.9	0	1	248	0.01	29.914 
16:00	72.0	72.0	72.0	93	69.9	0	1	248	0.00	29.912 
16:05	72.0	72.0	72.0	94	70.2	0	1	248	0.01	29.912 
16:10	71.8	71.8	71.8	94	70.0	0	2	248	0.02	29.912 
16:15	71.8	71.8	71.8	94	70.0	0	1	248	0.00	29.916 
16:20	71.8	71.8	71.8	94	70.0	0	1	248	0.00	29.916 
16:25	71.8	71.8	71.8	94	70.0	0	1	248	0.00	29.916 
16:30	71.8	71.8	71.8	94	70.0	0	1	248	0.00	29.917 
16:35	71.8	71.8	71.8	95	70.3	0	1	248	0.00	29.917 
16:40	71.8	71.8	71.8	95	70.3	0	1	248	0.01	29.917 
16:45	71.8	71.8	71.8	95	70.3	0	1	248	0.01	29.917 
16:50	71.6	71.6	71.6	95	70.1	0	0	---	0.04	29.917 
16:55	71.5	71.5	71.5	95	70.0	0	1	248	0.01	29.917 
17:00	71.5	71.5	71.5	95	70.0	0	0	---	0.02	29.919 
17:05	71.5	71.5	71.5	95	70.0	0	1	248	0.03	29.919 
17:10	71.3	71.3	71.3	95	69.8	0	2	248	0.00	29.919 
17:15	70.9	70.9	70.9	95	69.4	0	2	248	0.02	29.918 
17:20	70.9	70.9	70.9	95	69.4	0	2	248	0.00	29.918 
17:25	70.8	70.8	70.8	95	69.3	0	2	248	0.01	29.918 
17:30	70.8	70.8	70.8	95	69.3	0	1	248	0.00	29.920 
17:35	70.8	70.8	70.8	95	69.3	0	1	248	0.00	29.920 
17:40	70.6	70.6	70.6	95	69.1	0	1	248	0.01	29.920 
17:45	70.6	70.6	70.6	95	69.1	0	1	248	0.00	29.919 
17:50	70.6	70.6	70.6	95	69.1	0	1	248	0.00	29.919 
17:55	70.6	70.6	70.6	95	69.1	0	1	248	0.00	29.919 
18:00	70.6	70.6	70.6	95	69.1	0	1	248	0.00	29.920 
18:05	70.6	70.6	70.6	96	69.4	0	1	248	0.00	29.920 
18:10	70.6	70.6	70.6	95	69.1	0	2	248	0.00	29.920 
18:15	70.6	70.6	70.6	96	69.4	0	1	248	0.01	29.921 
18:20	70.6	70.6	70.6	96	69.4	0	1	248	0.00	29.921 
18:25	70.6	70.6	70.6	96	69.4	0	1	248	0.01	29.921 
18:30	70.6	70.6	70.6	96	69.4	0	3	248	0.03	29.921 
18:35	70.4	70.4	70.4	96	69.2	0	4	248	0.01	29.921 
18:40	70.3	70.3	70.3	96	69.1	0	1	248	0.02	29.921 
18:45	70.3	70.3	70.3	96	69.1	0	2	248	0.01	29.921 
18:50	70.3	70.3	70.3	96	69.1	0	1	248	0.02	29.921 
18:55	70.3	70.3	70.3	96	69.1	0	1	248	0.00	29.921 
19:00	70.1	70.1	70.1	96	68.9	0	1	248	0.00	29.918 
19:05	70.1	70.1	70.1	96	68.9	0	2	248	0.00	29.918 
19:10	70.1	70.1	70.1	96	68.9	0	1	248	0.00	29.918 
19:15	70.1	70.1	70.1	96	68.9	0	1	248	0.00	29.921 
19:20	70.1	70.1	70.1	96	68.9	0	1	248	0.00	29.921 
19:25	70.3	70.3	70.3	96	69.1	0	1	248	0.01	29.921 
19:30	70.3	70.3	70.3	96	69.1	0	2	0	0.00	29.924 
19:35	70.1	70.1	70.1	96	68.9	0	1	0	0.00	29.924 
19:40	69.9	69.9	69.9	96	68.7	0	1	0	0.00	29.924 
19:45	69.8	69.8	69.8	96	68.6	0	1	0	0.00	29.923 
19:50	69.6	69.6	69.6	96	68.4	0	2	0	0.00	29.923 
19:55	69.4	69.4	69.4	96	68.2	0	1	315	0.00	29.923 
20:00	69.4	69.4	69.4	96	68.2	0	0	---	0.00	29.926 
20:05	69.3	69.3	69.3	96	68.1	0	0	---	0.00	29.926 
20:10	69.3	69.3	69.3	96	68.1	0	1	315	0.00	29.926 
20:15	69.3	69.3	69.3	96	68.1	0	0	---	0.00	29.929 
20:20	69.1	69.1	69.1	96	67.9	0	1	315	0.00	29.929 
20:25	69.1	69.1	69.1	96	67.9	0	1	315	0.00	29.929 
20:30	69.1	69.1	69.1	96	67.9	0	1	315	0.00	29.937 
20:35	68.9	68.9	68.9	96	67.7	0	1	315	0.00	29.937 
20:40	68.9	68.9	68.9	96	67.7	0	0	---	0.01	29.937 
20:45	68.9	68.9	68.9	96	67.7	0	0	---	0.00	29.937 
20:50	68.9	68.9	68.9	96	67.7	0	1	315	0.00	29.937 
20:55	68.9	68.9	68.9	96	67.7	0	0	---	0.00	29.937 
21:00	68.9	68.9	68.9	96	67.7	0	0	---	0.00	29.934 
21:05	68.8	68.8	68.8	96	67.6	0	1	315	0.00	29.934 
21:10	68.8	68.8	68.8	96	67.6	0	0	---	0.00	29.934 
21:15	68.8	68.8	68.8	96	67.6	0	0	---	0.00	29.931 
21:20	68.8	68.8	68.8	96	67.6	0	1	315	0.00	29.931 
21:25	68.8	68.8	68.8	96	67.6	0	1	315	0.00	29.931 
21:30	68.8	68.8	68.8	96	67.6	0	1	315	0.00	29.936 
21:35	68.8	68.8	68.8	96	67.6	0	0	---	0.00	29.936 
21:40	68.8	68.8	68.8	96	67.6	0	0	---	0.00	29.936 
21:45	68.6	68.6	68.6	96	67.4	0	0	---	0.00	29.934 
21:50	68.6	68.6	68.6	96	67.4	0	0	---	0.00	29.934 
21:55	68.6	68.6	68.6	96	67.4	0	0	---	0.00	29.934 
22:00	68.6	68.6	68.6	96	67.4	0	0	---	0.00	29.930 
22:05	68.6	68.6	68.6	96	67.4	0	0	---	0.01	29.930 
22:10	68.6	68.6	68.6	96	67.4	0	0	---	0.00	29.930 
22:15	68.4	68.4	68.4	96	67.2	0	0	---	0.00	29.930 
22:20	68.4	68.4	68.4	96	67.2	0	0	---	0.00	29.930 
22:25	68.4	68.4	68.4	96	67.2	0	0	---	0.00	29.930 
22:30	68.4	68.4	68.4	96	67.2	0	0	---	0.00	29.926 
22:35	68.4	68.4	68.4	96	67.2	0	0	---	0.00	29.926 
22:40	68.4	68.4	68.4	96	67.2	0	0	---	0.00	29.926 
22:45	68.4	68.4	68.4	96	67.2	0	0	---	0.00	29.926 
22:50	68.4	68.4	68.4	96	67.2	0	0	---	0.00	29.926 
22:55	68.4	68.4	68.4	96	67.2	0	0	---	0.00	29.926 
23:00	68.4	68.4	68.4	96	67.2	0	0	---	0.00	29.929 
23:05	68.4	68.4	68.4	96	67.2	0	0	---	0.01	29.929 
23:10	68.4	68.4	68.4	96	67.2	0	0	---	0.00	29.929 
23:15	68.4	68.4	68.4	96	67.2	0	0	---	0.00	29.927 
23:20	68.4	68.4	68.4	96	67.2	0	0	---	0.00	29.927 
23:25	68.4	68.4	68.4	96	67.2	0	0	---	0.00	29.927 
23:30	68.4	68.4	68.4	96	67.2	0	0	---	0.00	29.927 
23:35	68.4	68.4	68.4	96	67.2	0	0	---	0.00	29.927 
23:40	68.4	68.4	68.4	96	67.2	0	0	---	0.01	29.927 
23:45	68.4	68.4	68.4	96	67.2	0	0	---	0.00	29.924 
23:50	68.4	68.4	68.4	96	67.2	0	1	315	0.00	29.924 
23:55	68.4	68.4	68.4	96	67.2	0	0	---	0.01	29.924 

CoCoRaHS
IN-AL-39
A2 Web Hosting
Creative Commons License
GoDaddy
Look for:

loaded 2017-10-17 22:24:08 • last modified 2010-11-18 10:43:29
Privacy PolicyDisclaimer
• wx.awcolley.com is powered by PmWiki v.2002016 •
• all content (unless otherwise noted) © 2017 A W Colley